Time;durP1;ratioP1;P1;durP2;ratioP2;P2;SDS_P1;SDS_P2;PMS_P1;PMS_P2;Temp;Humidity;BMP_temperature;BMP_pressure;BME280_temperature;BME280_humidity;BME280_pressure;Samples;Min_cycle;Max_cycle;Signal;HPM_P1;HPM_P2
2020/12/08 00:00:36;;;;;;;18.32;8.93;;;;;;;-5.42;83.96;96606.48;1820198;78;21143;-51
2020/12/08 00:03:04;;;;;;;16.40;9.00;;;;;;;-5.44;83.86;96605.22;1821240;78;22107;-51
2020/12/08 00:05:32;;;;;;;23.10;10.75;;;;;;;-5.46;83.86;96607.34;1821823;78;21128;-52
2020/12/08 00:08:03;;;;;;;19.07;10.70;;;;;;;-5.49;84.15;96601.89;1836083;77;21179;-51
2020/12/08 00:10:29;;;;;;;14.07;8.48;;;;;;;-5.49;84.18;96596.84;1806825;79;21486;-52
2020/12/08 00:12:57;;;;;;;19.02;10.78;;;;;;;-5.49;84.15;96598.50;1756284;81;21185;-51
2020/12/08 00:15:26;;;;;;;19.12;11.05;;;;;;;-5.49;84.27;96602.30;1793048;79;21388;-52
2020/12/08 00:17:54;;;;;;;15.53;10.10;;;;;;;-5.52;84.32;96596.02;1752716;80;21113;-51
2020/12/08 00:20:21;;;;;;;16.57;8.10;;;;;;;-5.48;84.28;96610.31;1735607;82;21300;-51
2020/12/08 00:22:49;;;;;;;15.90;8.95;;;;;;;-5.47;84.44;96600.63;1777666;80;21086;-50
2020/12/08 00:25:18;;;;;;;16.40;9.83;;;;;;;-5.44;84.19;96590.05;1777858;79;21124;-52
2020/12/08 00:27:45;;;;;;;19.27;10.88;;;;;;;-5.47;84.21;96606.51;1762057;80;21342;-50
2020/12/08 00:32:53;;;;;;;14.87;9.57;;;;;;;-5.41;84.32;96588.77;1909958;74;22383;-51
2020/12/08 00:35:21;;;;;;;15.13;8.50;;;;;;;-5.46;84.31;96587.97;1841590;77;20916;-51
2020/12/08 00:37:49;;;;;;;12.10;7.33;;;;;;;-5.46;84.33;96591.77;1844573;77;26100;-50
2020/12/08 00:40:17;;;;;;;13.95;8.43;;;;;;;-5.45;84.43;96595.13;1825353;77;21007;-51
2020/12/08 00:42:45;;;;;;;13.57;8.20;;;;;;;-5.43;84.45;96606.05;1839150;77;21148;-52
2020/12/08 00:45:13;;;;;;;14.80;9.50;;;;;;;-5.45;84.30;96601.01;1736728;81;21074;-52
2020/12/08 00:47:41;;;;;;;17.60;8.08;;;;;;;-5.46;84.48;96601.02;1708767;82;21232;-51
2020/12/08 00:50:09;;;;;;;18.03;10.57;;;;;;;-5.49;84.63;96595.98;1814934;78;21329;-52
2020/12/08 00:52:37;;;;;;;18.43;9.77;;;;;;;-5.47;84.58;96593.03;1799276;78;20998;-51
2020/12/08 00:55:08;;;;;;;17.73;7.10;;;;;;;-5.39;84.57;96595.08;1838401;78;20971;-51
2020/12/08 00:57:37;;;;;;;19.25;9.73;;;;;;;-5.27;84.16;96592.44;1744645;80;21121;-52
2020/12/08 01:00:06;;;;;;;16.57;8.75;;;;;;;-5.27;83.89;96591.17;1760376;80;21166;-52
2020/12/08 01:02:36;;;;;;;14.63;8.30;;;;;;;-5.28;83.93;96594.58;1766239;80;21207;-52
2020/12/08 01:05:04;;;;;;;13.57;6.90;;;;;;;-5.33;83.92;96589.95;1768717;80;21069;-51
2020/12/08 01:07:32;;;;;;;16.67;8.87;;;;;;;-5.34;84.21;96586.20;1754477;80;21759;-52
2020/12/08 01:09:59;;;;;;;19.52;10.65;;;;;;;-5.29;84.04;96595.85;1733710;81;21080;-51
2020/12/08 01:12:28;;;;;;;17.35;9.88;;;;;;;-5.29;84.03;96597.95;1735912;82;21133;-50
2020/12/08 01:14:56;;;;;;;14.03;8.48;;;;;;;-5.30;83.99;96594.98;1764655;80;23668;-51
2020/12/08 01:17:24;;;;;;;14.25;8.15;;;;;;;-5.30;84.16;96594.98;1747181;80;28146;-51
2020/12/08 01:19:52;;;;;;;17.40;9.88;;;;;;;-5.28;83.99;96583.59;1774377;80;21094;-51
2020/12/08 01:22:20;;;;;;;17.62;10.40;;;;;;;-5.24;83.91;96588.63;1753328;80;21073;-51
2020/12/08 01:24:48;;;;;;;15.35;9.75;;;;;;;-5.22;83.83;96583.12;1752775;80;21136;-52
2020/12/08 01:27:16;;;;;;;16.73;9.75;;;;;;;-5.19;83.86;96580.56;1817411;78;21934;-51
2020/12/08 01:29:44;;;;;;;15.72;10.03;;;;;;;-5.17;83.56;96590.23;1834683;78;21509;-51
2020/12/08 01:32:12;;;;;;;12.65;7.45;;;;;;;-5.19;83.56;96587.33;1810631;78;21057;-51
2020/12/08 01:34:41;;;;;;;13.10;7.17;;;;;;;-5.20;83.43;96595.35;1764320;80;21486;-52
2020/12/08 01:37:10;;;;;;;18.45;9.95;;;;;;;-5.18;83.49;96587.75;1768011;80;21494;-53
2020/12/08 01:39:39;;;;;;;;;;;;;;;-5.11;83.42;96575.45;1803714;78;21365;-51
2020/12/08 01:42:07;;;;;;;16.10;9.40;;;;;;;-5.08;83.22;96584.69;1744688;82;20218;-52
2020/12/08 01:44:35;;;;;;;14.25;8.45;;;;;;;-5.00;83.13;96575.33;1747407;81;21185;-51
2020/12/08 01:47:04;;;;;;;16.48;9.28;;;;;;;-4.95;82.65;96578.69;1838367;78;21029;-51
2020/12/08 01:49:33;;;;;;;16.02;9.70;;;;;;;-4.97;82.68;96588.39;1838244;78;21046;-51
2020/12/08 01:52:01;;;;;;;15.45;9.40;;;;;;;-5.00;82.90;96596.44;1751712;80;21470;-51
2020/12/08 01:54:30;;;;;;;15.53;9.65;;;;;;;-4.99;82.61;96584.17;1774692;80;21093;-52
2020/12/08 01:56:59;;;;;;;13.55;8.03;;;;;;;-5.03;82.89;96576.22;1775000;80;21470;-51
2020/12/08 01:59:27;;;;;;;13.80;8.63;;;;;;;-5.04;83.05;96583.39;1772739;80;21116;-51
2020/12/08 02:02:06;;;;;;;13.13;7.05;;;;;;;-5.05;83.11;96592.25;1742893;80;21154;-51
2020/12/08 02:04:34;;;;;;;17.03;9.50;;;;;;;-5.07;83.18;96586.37;1756916;81;22063;-52
2020/12/08 02:07:03;;;;;;;11.12;6.60;;;;;;;-5.05;83.22;96590.98;1672671;82;25444;-51
2020/12/08 02:09:36;;;;;;;14.23;9.30;;;;;;;-5.02;83.15;96587.17;1833319;78;21030;-50
2020/12/08 02:12:05;;;;;;;13.75;8.70;;;;;;;-4.99;83.08;96582.08;1750863;80;21581;-52
2020/12/08 02:14:35;;;;;;;17.62;8.25;;;;;;;-4.95;83.12;96577.42;1760741;80;21182;-52
2020/12/08 02:17:04;;;;;;;14.30;9.03;;;;;;;-4.88;82.96;96584.53;1760983;80;21302;-51
2020/12/08 02:19:32;;;;;;;17.48;7.55;;;;;;;-4.81;82.75;96571.77;1763201;80;25147;-51
2020/12/08 02:22:01;;;;;;;16.17;9.43;;;;;;;-4.82;82.26;96575.58;1805505;79;21153;-52
2020/12/08 02:24:29;;;;;;;14.55;8.78;;;;;;;-4.87;82.56;96566.80;1815830;79;21063;-51
2020/12/08 02:26:57;;;;;;;12.25;7.75;;;;;;;-4.84;82.51;96570.97;1815097;78;21145;-50
2020/12/08 02:29:25;;;;;;;14.28;9.08;;;;;;;-4.86;82.52;96571.42;1831212;78;21260;-51
2020/12/08 02:31:55;;;;;;;13.88;8.60;;;;;;;-4.86;82.67;96572.69;1837624;78;21117;-51
2020/12/08 02:34:23;;;;;;;12.73;8.88;;;;;;;-4.84;82.71;96568.44;1838414;78;21454;-51
2020/12/08 02:36:57;;;;;;;13.28;8.23;;;;;;;-4.76;82.55;96564.13;1834596;78;21045;-52
2020/12/08 02:39:28;;;;;;;15.10;9.63;;;;;;;-4.76;82.21;96562.87;1792719;79;21122;-50
2020/12/08 02:41:58;;;;;;;14.45;9.48;;;;;;;-4.83;82.36;96568.42;1831629;78;22119;-52
2020/12/08 02:44:27;;;;;;;15.30;9.00;;;;;;;-4.73;82.49;96566.64;1751848;81;21149;-51
2020/12/08 02:46:56;;;;;;;12.28;8.15;;;;;;;-4.66;81.98;96573.30;1751891;82;21139;-51
2020/12/08 02:49:25;;;;;;;12.25;8.63;;;;;;;-4.64;81.92;96566.95;1747157;82;21137;-51
2020/12/08 02:51:57;;;;;;;13.93;8.40;;;;;;;-4.64;81.51;96569.48;1774802;80;21069;-52
2020/12/08 02:54:27;;;;;;;14.15;7.92;;;;;;;-4.68;81.52;96573.75;1760524;81;21384;-51
2020/12/08 02:57:02;;;;;;;11.95;7.50;;;;;;;-4.73;81.76;96568.34;1778428;80;21137;-51
2020/12/08 02:59:33;;;;;;;13.08;8.38;;;;;;;-4.72;81.57;96567.47;1740770;81;21079;-51
2020/12/08 03:02:01;;;;;;;13.48;7.90;;;;;;;-4.77;81.80;96572.61;1761332;80;21476;-51
2020/12/08 03:04:30;;;;;;;14.05;8.75;;;;;;;-4.77;81.91;96574.27;1731069;82;21500;-50
2020/12/08 03:07:00;;;;;;;14.05;8.55;;;;;;;-4.77;82.11;96572.61;1744861;80;22259;-50
2020/12/08 03:09:28;;;;;;;12.37;8.53;;;;;;;-4.73;82.11;96576.77;1761285;80;22008;-51
2020/12/08 03:11:57;;;;;;;14.50;8.48;;;;;;;-4.71;81.75;96578.02;1761237;81;21127;-51
2020/12/08 03:14:25;;;;;;;13.25;8.30;;;;;;;-4.70;81.98;96578.00;1761369;81;21154;-51
2020/12/08 03:16:56;;;;;;;12.93;8.30;;;;;;;-4.63;81.63;96585.10;1744055;80;21782;-51
2020/12/08 03:19:25;;;;;;;11.50;7.97;;;;;;;-4.63;81.70;96575.80;1767193;80;21933;-51
2020/12/08 03:21:54;;;;;;;11.95;8.85;;;;;;;-4.61;81.52;96579.59;1735101;80;21186;-52
2020/12/08 03:24:23;;;;;;;13.65;8.60;;;;;;;-4.63;81.68;96580.88;1781612;80;21501;-52
2020/12/08 03:26:54;;;;;;;13.62;8.58;;;;;;;-4.65;81.96;96581.76;1768992;80;21476;-51
2020/12/08 03:29:24;;;;;;;13.00;7.92;;;;;;;-4.65;81.94;96587.66;1768273;80;21474;-52
2020/12/08 03:31:51;;;;;;;12.65;8.58;;;;;;;-4.68;82.17;96581.78;1766409;80;21198;-52
2020/12/08 03:34:19;;;;;;;14.60;8.48;;;;;;;-4.70;82.46;96592.36;1749948;82;21113;-51
2020/12/08 03:36:49;;;;;;;12.88;8.68;;;;;;;-4.65;82.23;96596.52;1828553;78;21565;-52
2020/12/08 03:39:19;;;;;;;12.23;7.70;;;;;;;-4.58;82.25;96596.02;1814481;78;21121;-51
2020/12/08 03:41:48;;;;;;;16.77;10.30;;;;;;;-4.48;81.90;96591.70;1789678;78;21126;-51
2020/12/08 03:44:16;;;;;;;15.85;8.03;;;;;;;-4.51;81.51;96596.35;1815954;79;21519;-51
2020/12/08 03:46:43;;;;;;;20.12;9.88;;;;;;;-4.59;81.82;96602.36;1815582;78;21526;-50
2020/12/08 03:49:12;;;;;;;;;;;;;;;-4.68;81.94;96600.77;1817021;79;21065;-51
2020/12/08 03:51:40;;;;;;;12.93;7.12;;;;;;;-4.77;82.39;96600.86;1811884;78;20216;-51
2020/12/08 03:54:10;;;;;;;13.75;9.25;;;;;;;-4.81;82.71;96598.78;1815351;79;21055;-51
2020/12/08 03:56:43;;;;;;;16.65;10.32;;;;;;;-4.84;82.79;96600.08;1818973;78;21346;-51
2020/12/08 03:59:17;;;;;;;15.32;9.30;;;;;;;-4.89;82.93;96596.32;1796054;78;21597;-51
2020/12/08 04:01:43;;;;;;;17.32;9.70;;;;;;;-4.84;83.09;96600.91;1786054;79;21083;-51
2020/12/08 04:04:11;;;;;;;14.85;9.53;;;;;;;-4.77;82.90;96611.84;1818998;78;21050;-52
2020/12/08 04:06:39;;;;;;;18.13;11.27;;;;;;;-4.79;82.82;96610.99;1814416;78;21054;-52
2020/12/08 04:09:08;;;;;;;12.73;6.80;;;;;;;-4.82;83.02;96604.69;1790541;78;21183;-51
2020/12/08 04:11:38;;;;;;;16.17;10.40;;;;;;;-4.76;82.98;96596.22;1806989;78;21377;-52
2020/12/08 04:14:06;;;;;;;19.23;11.83;;;;;;;-4.70;82.68;96598.26;1836060;77;21136;-52
2020/12/08 04:16:37;;;;;;;15.58;10.03;;;;;;;-4.71;82.57;96605.43;1784647;79;21184;-51
2020/12/08 04:19:07;;;;;;;17.73;10.25;;;;;;;-4.73;82.67;96599.98;1820219;78;21104;-51
2020/12/08 04:21:35;;;;;;;19.32;11.20;;;;;;;-4.72;82.79;96599.11;1837755;78;21144;-52
2020/12/08 04:24:19;;;;;;;18.60;10.40;;;;;;;-4.62;82.67;96601.55;1888695;76;21933;-51
2020/12/08 04:26:48;;;;;;;20.92;11.10;;;;;;;-4.62;82.45;96602.81;1777789;80;21050;-50
2020/12/08 04:29:18;;;;;;;19.48;10.65;;;;;;;-4.62;82.21;96601.98;1820997;77;21257;-51
2020/12/08 04:31:50;;;;;;;17.90;10.93;;;;;;;-4.60;82.23;96601.97;1817714;77;21516;-51
2020/12/08 04:34:18;;;;;;;17.00;10.85;;;;;;;-4.57;82.07;96610.77;1817031;77;20923;-51
2020/12/08 04:36:49;;;;;;;18.48;9.63;;;;;;;-4.56;82.00;96613.30;1831483;77;21132;-52
2020/12/08 04:39:17;;;;;;;18.98;11.22;;;;;;;-4.55;81.82;96605.29;1835938;77;21033;-51
2020/12/08 04:41:45;;;;;;;19.27;11.75;;;;;;;-4.63;81.72;96602.39;1822172;78;21366;-50
2020/12/08 04:44:13;;;;;;;15.40;9.25;;;;;;;-4.68;81.94;96612.17;1816132;78;20998;-51
2020/12/08 04:46:41;;;;;;;19.53;11.17;;;;;;;-4.69;82.03;96607.55;1818142;77;21146;-51
2020/12/08 04:49:09;;;;;;;16.80;10.63;;;;;;;-4.67;82.15;96608.77;1819304;77;21032;-51
2020/12/08 04:51:39;;;;;;;18.27;12.40;;;;;;;-4.64;82.21;96610.00;1722174;81;21058;-51
2020/12/08 04:54:07;;;;;;;18.55;11.40;;;;;;;-4.57;81.96;96615.44;1817459;77;22437;-51
2020/12/08 04:56:35;;;;;;;18.60;10.05;;;;;;;-4.54;81.89;96612.88;1818805;77;21185;-52
2020/12/08 04:59:03;;;;;;;18.57;11.60;;;;;;;-4.43;81.54;96612.73;1816873;77;21124;-52
2020/12/08 05:01:32;;;;;;;20.25;10.60;;;;;;;-4.34;81.28;96630.38;1789114;79;21161;-52
2020/12/08 05:04:01;;;;;;;18.47;11.50;;;;;;;-4.35;80.77;96627.86;1816669;79;21168;-51
2020/12/08 05:06:29;;;;;;;16.35;10.98;;;;;;;-4.41;81.03;96622.86;1843290;77;21734;-51
2020/12/08 05:09:03;;;;;;;;;;;;;;;-4.45;81.24;96626.69;1800880;79;21071;-51
2020/12/08 05:11:30;;;;;;;21.20;10.60;;;;;;;-4.51;81.34;96623.38;1777295;79;20242;-51
2020/12/08 05:14:05;;;;;;;18.37;10.72;;;;;;;-4.53;81.63;96613.70;1816606;79;21058;-51
2020/12/08 05:16:33;;;;;;;18.62;11.18;;;;;;;-4.51;81.59;96619.58;1825196;77;21164;-51
2020/12/08 05:19:10;;;;;;;22.77;11.12;;;;;;;-4.48;81.55;96618.28;1816791;77;21187;-51
2020/12/08 05:21:51;;;;;;;17.42;10.55;;;;;;;-4.52;81.43;96609.89;1826996;77;21045;-50
2020/12/08 05:24:30;;;;;;;17.82;10.98;;;;;;;-4.53;81.61;96605.66;1819096;78;21049;-51
2020/12/08 05:27:03;;;;;;;;;;;;;;;-4.51;81.75;96598.88;1822552;78;21069;-51
2020/12/08 05:29:32;;;;;;;20.35;11.28;;;;;;;-4.40;81.50;96604.28;1823002;77;20220;-52
2020/12/08 05:32:29;;;;;;;21.25;10.32;;;;;;;-4.39;81.01;96605.53;1839678;77;21193;-51
2020/12/08 05:34:56;;;;;;;30.48;12.28;;;;;;;-4.43;80.99;96624.14;1851494;77;21117;-52
2020/12/08 05:37:24;;;;;;;23.95;10.63;;;;;;;-4.45;81.34;96612.75;1835790;77;21099;-51
2020/12/08 05:39:52;;;;;;;18.57;10.20;;;;;;;-4.41;81.23;96615.25;1852429;77;21592;-51
2020/12/08 05:42:20;;;;;;;15.70;9.70;;;;;;;-4.46;81.26;96635.56;1811501;78;21954;-51
2020/12/08 05:44:51;;;;;;;16.67;10.28;;;;;;;-4.51;81.48;96614.52;1820780;77;21248;-50
2020/12/08 05:47:21;;;;;;;18.32;12.28;;;;;;;-4.53;81.75;96611.17;1782172;79;21073;-51
2020/12/08 05:52:34;;;;;;;26.00;11.80;;;;;;;-4.40;81.78;96622.84;1877907;76;22655;-50
2020/12/08 05:55:11;;;;;;;15.00;8.53;;;;;;;-4.46;81.60;96615.30;1817094;77;21192;-50
2020/12/08 05:57:39;;;;;;;24.40;9.45;;;;;;;-4.46;81.62;96626.30;1778674;79;22308;-50
2020/12/08 06:00:26;;;;;;;35.10;12.70;;;;;;;-4.42;81.61;96630.03;1838131;77;21026;-51
2020/12/08 06:02:56;;;;;;;21.82;11.50;;;;;;;-4.36;81.68;96624.50;1791657;79;21116;-53
2020/12/08 06:05:31;;;;;;;16.20;10.30;;;;;;;-4.23;81.29;96619.28;1787349;79;21136;-51
2020/12/08 06:08:00;;;;;;;18.15;10.08;;;;;;;-4.20;81.08;96631.48;1833032;77;21072;-51
2020/12/08 06:10:29;;;;;;;20.82;10.03;;;;;;;-4.18;81.06;96630.19;1807129;79;22315;-51
2020/12/08 06:13:01;;;;;;;20.43;10.03;;;;;;;-4.21;81.10;96627.69;1849909;77;20966;-51
2020/12/08 06:15:39;;;;;;;15.28;9.95;;;;;;;-4.23;81.34;96634.48;1844107;77;21088;-51
2020/12/08 06:18:11;;;;;;;17.30;10.23;;;;;;;-4.30;81.48;96624.84;1850100;77;21053;-51
2020/12/08 06:20:39;;;;;;;19.20;10.40;;;;;;;-4.34;81.73;96637.98;1807120;79;21045;-51
2020/12/08 06:23:07;;;;;;;19.92;10.65;;;;;;;-4.30;81.86;96641.31;1837023;77;22275;-51
2020/12/08 06:25:35;;;;;;;49.20;12.23;;;;;;;-4.31;81.85;96647.22;1822239;78;21102;-50
2020/12/08 06:28:04;;;;;;;23.67;10.28;;;;;;;-4.38;82.04;96643.09;1822074;78;21778;-50
2020/12/08 06:30:31;;;;;;;;;;;;;;;-4.36;82.25;96648.56;1828662;77;21120;-51
2020/12/08 06:33:01;;;;;;;27.20;10.10;;;;;;;-4.36;82.25;96647.30;1850298;77;20226;-51
2020/12/08 06:35:33;;;;;;;22.10;10.20;;;;;;;-4.37;82.41;96655.74;1752123;80;22333;-51
2020/12/08 06:38:02;;;;;;;21.93;11.83;;;;;;;-4.33;82.40;96651.48;1741561;81;21200;-50
2020/12/08 06:40:30;;;;;;;22.37;11.53;;;;;;;-4.27;82.37;96650.15;1728964;83;21079;-51
2020/12/08 06:43:00;;;;;;;24.98;12.07;;;;;;;-4.21;82.03;96655.16;1816422;78;21087;-51
2020/12/08 06:45:28;;;;;;;;;;;;;;;-4.23;82.02;96659.81;1808080;79;21173;-52
2020/12/08 06:47:56;;;;;;;19.87;10.70;;;;;;;-4.25;82.09;96660.66;1816204;78;21037;-51
2020/12/08 06:50:30;;;;;;;15.55;9.08;;;;;;;-4.25;82.23;96663.63;1816480;79;21502;-52
2020/12/08 06:53:02;;;;;;;23.90;10.45;;;;;;;-4.23;82.09;96671.22;1787697;79;21089;-51
2020/12/08 06:55:34;;;;;;;17.65;9.58;;;;;;;-4.29;82.28;96663.27;1787606;79;21492;-51
2020/12/08 06:58:06;;;;;;;17.87;8.80;;;;;;;-4.32;82.47;96667.93;1741415;81;21166;-51
2020/12/08 07:00:34;;;;;;;17.98;10.40;;;;;;;-4.33;82.68;96666.23;1784724;79;21130;-50
2020/12/08 07:03:03;;;;;;;18.82;10.82;;;;;;;-4.27;82.65;96683.09;1800292;78;21153;-52
2020/12/08 07:05:33;;;;;;;20.30;11.38;;;;;;;-4.19;82.64;96671.17;1771431;79;21228;-52
2020/12/08 07:08:03;;;;;;;21.85;10.72;;;;;;;-4.09;82.26;96666.41;1727626;82;21522;-51
2020/12/08 07:10:33;;;;;;;22.13;12.33;;;;;;;-4.05;81.95;96673.54;1742559;82;21126;-51
2020/12/08 07:13:01;;;;;;;18.10;8.30;;;;;;;-4.04;82.03;96673.13;1706000;82;21371;-51
2020/12/08 07:15:31;;;;;;;26.25;12.13;;;;;;;-3.93;81.65;96678.48;1815683;79;21511;-50
2020/12/08 07:18:04;;;;;;;18.82;11.65;;;;;;;-3.81;81.65;96686.80;1786236;79;21070;-51
2020/12/08 07:20:32;;;;;;;17.90;10.90;;;;;;;-3.73;81.24;96683.74;1771676;80;21658;-52
2020/12/08 07:23:05;;;;;;;18.23;10.13;;;;;;;-3.71;80.61;96680.75;1747045;82;21085;-51
2020/12/08 07:25:33;;;;;;;19.85;11.78;;;;;;;-3.90;80.93;96686.05;1771377;80;22166;-51
2020/12/08 07:28:02;;;;;;;17.92;11.12;;;;;;;-3.98;81.47;96690.78;1761417;81;28684;-51
2020/12/08 07:30:31;;;;;;;20.32;11.18;;;;;;;-4.02;81.72;96687.89;1761504;81;22866;-51
2020/12/08 07:33:10;;;;;;;19.62;10.55;;;;;;;-3.95;81.80;96685.27;1760075;81;21081;-51
2020/12/08 07:35:48;;;;;;;22.27;12.37;;;;;;;-3.93;81.51;96687.36;1761084;81;21068;-50
2020/12/08 07:38:15;;;;;;;22.17;12.63;;;;;;;-4.00;81.77;96680.66;1741542;81;21389;-52
2020/12/08 07:40:43;;;;;;;20.43;11.50;;;;;;;-3.98;81.86;96676.44;1759168;81;21137;-50
2020/12/08 07:43:12;;;;;;;19.95;10.10;;;;;;;-3.93;81.60;96688.62;1760920;81;21163;-52
2020/12/08 07:45:45;;;;;;;20.02;11.20;;;;;;;-3.97;81.78;96686.96;1754442;81;21073;-51
2020/12/08 07:48:19;;;;;;;22.62;11.63;;;;;;;-4.00;81.84;96679.39;1723074;81;21160;-51
2020/12/08 07:50:47;;;;;;;22.62;12.13;;;;;;;-4.06;82.12;96687.09;1743471;81;21453;-51
2020/12/08 07:53:15;;;;;;;15.30;8.90;;;;;;;-4.07;82.31;96682.86;1727172;81;21153;-51
2020/12/08 07:55:45;;;;;;;20.10;10.50;;;;;;;-4.09;82.41;96684.14;1760809;81;21581;-51
2020/12/08 07:58:13;;;;;;;21.30;11.57;;;;;;;-4.13;82.53;96687.99;1761375;81;21140;-51
2020/12/08 08:00:41;;;;;;;21.33;12.47;;;;;;;-4.18;82.72;96684.23;1739194;81;21073;-52
2020/12/08 08:03:08;;;;;;;22.32;12.43;;;;;;;-4.18;82.86;96682.97;1760554;81;21215;-52
2020/12/08 08:05:38;;;;;;;22.40;12.50;;;;;;;-4.18;82.95;96687.20;1760637;81;21069;-50
2020/12/08 08:08:06;;;;;;;25.68;13.38;;;;;;;-4.15;83.00;96687.17;1761263;81;21112;-51
2020/12/08 08:10:34;;;;;;;21.47;13.53;;;;;;;-4.14;82.79;96690.14;1758957;81;21141;-51
2020/12/08 08:13:02;;;;;;;21.17;11.97;;;;;;;-4.11;82.77;96690.11;1760421;81;21164;-50
2020/12/08 08:15:30;;;;;;;22.95;12.18;;;;;;;-4.08;82.51;96691.31;1759754;81;21211;-50
2020/12/08 08:17:58;;;;;;;27.15;12.25;;;;;;;-4.10;82.62;96691.77;1738507;81;21532;-51
2020/12/08 08:20:26;;;;;;;19.27;11.68;;;;;;;-4.08;82.60;96690.91;1750142;81;21597;-51
2020/12/08 08:22:55;;;;;;;22.62;12.70;;;;;;;-4.05;82.42;96690.45;1761079;81;21173;-51
2020/12/08 08:25:24;;;;;;;27.50;12.73;;;;;;;-4.08;82.20;96692.17;1760987;81;21160;-51
2020/12/08 08:27:51;;;;;;;19.57;11.48;;;;;;;-4.07;82.38;96700.61;1731959;81;22584;-51
2020/12/08 08:30:19;;;;;;;24.43;12.75;;;;;;;-4.08;82.38;96704.84;1761207;81;21085;-50
2020/12/08 08:32:47;;;;;;;26.17;13.20;;;;;;;-4.07;82.33;96691.30;1761223;81;21081;-51
2020/12/08 08:35:15;;;;;;;20.85;11.00;;;;;;;-4.01;82.51;96694.61;1760568;81;21180;-54
2020/12/08 08:37:43;;;;;;;18.40;10.03;;;;;;;-4.01;81.95;96684.48;1761044;81;21124;-51
2020/12/08 08:40:10;;;;;;;22.15;12.95;;;;;;;-4.05;82.13;96677.78;1761238;81;21657;-52
2020/12/08 08:42:38;;;;;;;17.27;10.15;;;;;;;-4.04;82.38;96695.95;1760494;81;21789;-54
2020/12/08 08:45:06;;;;;;;19.95;12.43;;;;;;;-3.98;81.75;96684.03;1760448;81;21148;-51
2020/12/08 08:47:34;;;;;;;19.75;11.80;;;;;;;-4.04;81.82;96681.56;1731929;81;21156;-51
2020/12/08 08:50:01;;;;;;;20.08;12.65;;;;;;;-4.07;82.08;96676.53;1760987;81;21891;-52
2020/12/08 08:52:30;;;;;;;22.58;11.83;;;;;;;-4.08;82.00;96685.84;1761006;81;21490;-59
2020/12/08 08:54:58;;;;;;;23.38;12.85;;;;;;;-4.09;81.96;96684.58;1714423;82;21112;-50
2020/12/08 08:57:26;;;;;;;19.87;11.88;;;;;;;-4.09;81.96;96684.58;1743803;82;21501;-51
2020/12/08 08:59:55;;;;;;;21.45;12.45;;;;;;;-4.07;82.21;96675.26;1743839;82;21145;-51
2020/12/08 09:02:22;;;;;;;22.07;11.48;;;;;;;-4.01;82.11;96677.73;1686620;83;21211;-51
2020/12/08 09:04:53;;;;;;;20.30;12.70;;;;;;;-3.92;82.08;96679.31;1743902;82;21360;-51
2020/12/08 09:07:21;;;;;;;20.57;10.15;;;;;;;-3.86;81.51;96677.98;1713011;83;21514;-51
2020/12/08 09:09:49;;;;;;;23.05;13.08;;;;;;;-3.84;81.25;96681.33;1743926;82;21565;-51
2020/12/08 09:12:17;;;;;;;23.95;12.88;;;;;;;-3.86;81.05;96673.34;1712898;83;21068;-51
2020/12/08 09:14:45;;;;;;;26.80;14.40;;;;;;;-3.86;81.51;96665.73;1774261;80;21121;-51
2020/12/08 09:17:13;;;;;;;23.90;13.27;;;;;;;-3.71;81.60;96671.44;1774787;80;21257;-51
2020/12/08 09:19:41;;;;;;;20.13;12.30;;;;;;;-3.53;81.01;96667.81;1742737;82;21336;-51
2020/12/08 09:22:08;;;;;;;19.87;11.40;;;;;;;-3.40;79.71;96657.08;1747264;82;21770;-52
2020/12/08 09:24:36;;;;;;;25.48;12.85;;;;;;;-3.41;79.77;96663.44;1815760;79;21082;-51
2020/12/08 09:27:06;;;;;;;15.43;10.35;;;;;;;-3.44;79.70;96658.41;1815713;79;21089;-52
2020/12/08 09:29:35;;;;;;;20.27;11.93;;;;;;;-3.47;80.01;96655.91;1815768;79;21934;-52
2020/12/08 09:32:02;;;;;;;19.75;11.43;;;;;;;-3.45;79.82;96658.02;1815772;78;21597;-52
2020/12/08 09:34:30;;;;;;;17.62;11.50;;;;;;;-3.49;79.59;96658.46;1815650;79;21054;-51
2020/12/08 09:36:59;;;;;;;22.00;12.25;;;;;;;-3.52;79.84;96654.70;1815853;79;21093;-51
2020/12/08 09:39:28;;;;;;;20.85;12.05;;;;;;;-3.53;79.97;96648.80;1815884;79;21066;-52
2020/12/08 09:41:56;;;;;;;20.40;11.43;;;;;;;-3.51;80.01;96645.80;1774713;80;21188;-51
2020/12/08 09:44:25;;;;;;;18.87;11.40;;;;;;;-3.43;79.93;96646.97;1815622;79;21169;-52
2020/12/08 09:46:53;;;;;;;21.27;11.95;;;;;;;-3.35;79.30;96643.06;1815638;78;21133;-52
2020/12/08 09:49:21;;;;;;;22.00;11.43;;;;;;;-3.35;79.33;96645.59;1815723;79;21270;-51
2020/12/08 09:51:49;;;;;;;21.17;11.80;;;;;;;-3.38;79.20;96647.73;1774411;80;21152;-51
2020/12/08 09:54:17;;;;;;;18.65;10.63;;;;;;;-3.38;79.43;96643.10;1815764;79;21239;-51
2020/12/08 09:56:46;;;;;;;18.35;11.33;;;;;;;-3.37;79.29;96639.72;1774448;80;21125;-51
2020/12/08 09:59:14;;;;;;;18.35;11.50;;;;;;;-3.39;79.47;96641.41;1815642;78;21577;-50
2020/12/08 10:01:42;;;;;;;21.73;12.23;;;;;;;-3.44;79.18;96643.19;1774687;80;21176;-51
2020/12/08 10:04:10;;;;;;;21.23;12.45;;;;;;;-3.48;79.35;96651.27;1815695;79;21090;-51
2020/12/08 10:06:40;;;;;;;19.02;11.33;;;;;;;-3.48;79.63;96644.93;1774036;80;21372;-51
2020/12/08 10:09:08;;;;;;;24.37;13.25;;;;;;;-3.43;79.37;96646.97;1815795;78;21494;-50
2020/12/08 10:11:37;;;;;;;17.33;9.73;;;;;;;-3.43;79.46;96641.06;1774713;80;21112;-50
2020/12/08 10:14:04;;;;;;;20.08;12.10;;;;;;;-3.44;79.07;96640.64;1815679;78;26040;-51
2020/12/08 10:16:33;;;;;;;21.77;12.15;;;;;;;-3.51;79.17;96643.70;1815615;79;21089;-50
2020/12/08 10:19:01;;;;;;;20.08;12.15;;;;;;;-3.52;79.68;96645.81;1815830;79;21356;-50
2020/12/08 10:21:28;;;;;;;19.73;11.78;;;;;;;-3.44;79.40;96646.55;1774600;80;21066;-50
2020/12/08 10:23:56;;;;;;;17.77;11.80;;;;;;;-3.46;79.27;96642.38;1815685;79;21582;-50
2020/12/08 10:26:24;;;;;;;19.65;11.33;;;;;;;-3.46;79.29;96639.84;1786874;79;21168;-50
2020/12/08 10:28:51;;;;;;;21.35;12.85;;;;;;;-3.40;79.11;96639.75;1815594;78;21542;-50
2020/12/08 10:31:19;;;;;;;20.85;11.63;;;;;;;-3.39;78.83;96635.93;1815667;79;21326;-50
2020/12/08 10:33:47;;;;;;;22.58;11.38;;;;;;;-3.39;78.95;96651.56;1815603;79;21073;-50
2020/12/08 10:36:14;;;;;;;24.20;13.03;;;;;;;-3.39;78.99;96641.00;1815661;79;21570;-50
2020/12/08 10:38:42;;;;;;;22.10;12.30;;;;;;;-3.33;78.85;96644.70;1815783;79;21156;-50
2020/12/08 10:41:10;;;;;;;16.80;10.20;;;;;;;-3.30;78.35;96635.39;1815843;79;21066;-50
2020/12/08 10:43:38;;;;;;;25.50;11.90;;;;;;;-3.41;78.54;96636.80;1815681;79;21388;-50
2020/12/08 10:46:06;;;;;;;22.80;13.25;;;;;;;-3.46;78.87;96642.38;1774584;80;21149;-50
2020/12/08 10:48:33;;;;;;;23.95;11.83;;;;;;;-3.48;79.06;96640.30;1815915;79;21113;-50
2020/12/08 10:51:01;;;;;;;22.10;12.90;;;;;;;-3.48;79.17;96639.86;1774579;80;21543;-50
2020/12/08 10:53:29;;;;;;;20.55;12.88;;;;;;;-3.43;79.26;96634.72;1769256;80;21062;-51
2020/12/08 10:55:57;;;;;;;23.22;12.90;;;;;;;-3.33;79.46;96645.97;1737101;82;21304;-51
2020/12/08 10:58:25;;;;;;;22.37;12.18;;;;;;;-3.17;78.57;96640.68;1767414;81;21149;-51
2020/12/08 11:00:52;;;;;;;23.70;13.32;;;;;;;-3.17;78.45;96644.05;1737081;82;21161;-51
2020/12/08 11:03:20;;;;;;;19.67;12.63;;;;;;;-3.18;78.65;96644.89;1767548;81;21065;-51
2020/12/08 11:05:47;;;;;;;21.05;12.30;;;;;;;-3.03;78.57;96640.01;1726132;83;21080;-51
2020/12/08 11:08:16;;;;;;;21.82;12.43;;;;;;;-2.89;77.90;96646.59;1750224;82;21170;-51
2020/12/08 11:10:44;;;;;;;20.65;12.25;;;;;;;-2.88;77.23;96643.17;1725106;82;21101;-51
2020/12/08 11:13:14;;;;;;;33.00;14.85;;;;;;;-3.01;77.45;96649.73;1736203;82;21561;-51
2020/12/08 11:15:43;;;;;;;48.48;14.70;;;;;;;-3.01;78.16;96647.19;1763817;81;21585;-51
2020/12/08 11:18:11;;;;;;;45.75;14.28;;;;;;;-2.97;77.32;96660.23;1767559;81;21034;-51
2020/12/08 11:20:38;;;;;;;34.63;14.43;;;;;;;-3.02;77.74;96652.29;1767507;81;21371;-51
2020/12/08 11:23:06;;;;;;;32.28;13.48;;;;;;;-2.99;77.65;96644.62;1753337;81;21141;-51
2020/12/08 11:25:34;;;;;;;42.23;14.85;;;;;;;-2.96;77.78;96652.20;1726096;83;21155;-50
2020/12/08 11:28:03;;;;;;;43.08;15.05;;;;;;;-2.94;77.81;96651.73;1750186;82;21101;-51
2020/12/08 11:30:31;;;;;;;31.23;13.35;;;;;;;-2.86;77.72;96653.72;1750412;82;21082;-51
2020/12/08 11:33:00;;;;;;;29.57;13.13;;;;;;;-2.84;77.27;96644.81;1750382;81;21359;-52
2020/12/08 11:35:29;;;;;;;23.70;12.45;;;;;;;-2.91;77.39;96646.61;1721916;82;21216;-51